createdAt,value
2022-12-15T00:00:20.677Z,-2.39
2022-12-15T00:03:06.732Z,-2.34
2022-12-15T00:05:52.419Z,-2.45
2022-12-15T00:08:39.057Z,-2.43
2022-12-15T00:11:25.036Z,-2.45
2022-12-15T00:14:10.941Z,-2.46
2022-12-15T00:16:57.013Z,-2.61
2022-12-15T00:19:42.450Z,-2.59
2022-12-15T00:22:29.353Z,-2.58
2022-12-15T00:25:15.326Z,-2.55
2022-12-15T00:28:01.271Z,-2.38
2022-12-15T00:30:49.596Z,-2.26
2022-12-15T00:33:35.640Z,-2.12
2022-12-15T00:36:21.623Z,-2.27
2022-12-15T00:38:48.985Z,-2.14
2022-12-15T00:41:18.888Z,-2.12
2022-12-15T00:43:46.867Z,-2.10
2022-12-15T00:46:33.226Z,-2.13
2022-12-15T00:49:01.472Z,-2.11
2022-12-15T00:51:47.436Z,-2.20
2022-12-15T00:54:35.027Z,-2.17
2022-12-15T00:57:21.094Z,-2.23
2022-12-15T01:00:07.224Z,-2.38
2022-12-15T01:02:53.514Z,-2.49
2022-12-15T01:05:39.518Z,-2.51
2022-12-15T01:08:25.487Z,-2.55
2022-12-15T01:11:11.590Z,-2.51
2022-12-15T01:13:57.228Z,-2.40
2022-12-15T01:16:43.313Z,-2.33
2022-12-15T01:19:30.041Z,-2.43
2022-12-15T01:21:57.279Z,-2.38
2022-12-15T01:24:24.613Z,-2.24
2022-12-15T01:26:51.882Z,-2.20
2022-12-15T01:29:19.134Z,-2.13
2022-12-15T01:31:49.921Z,-2.11
2022-12-15T01:34:20.127Z,-2.17
2022-12-15T01:36:47.763Z,-2.14
2022-12-15T01:39:15.971Z,-2.37
2022-12-15T01:41:43.189Z,-2.44
2022-12-15T01:44:25.020Z,-2.46
2022-12-15T01:46:56.462Z,-2.48
2022-12-15T01:49:32.518Z,-2.48
2022-12-15T01:52:05.136Z,-2.65
2022-12-15T01:54:57.841Z,-2.70
2022-12-15T01:57:30.407Z,-2.82
2022-12-15T02:00:05.328Z,-2.71
2022-12-15T02:02:39.946Z,-2.73
2022-12-15T02:05:09.641Z,-2.85
2022-12-15T02:07:36.917Z,-2.93
2022-12-15T02:10:07.546Z,-2.88
2022-12-15T02:13:35.645Z,-2.75
2022-12-15T02:16:37.109Z,-2.83
2022-12-15T02:19:38.242Z,-2.72
2022-12-15T02:22:48.855Z,-2.85
2022-12-15T02:25:50.954Z,-2.87
2022-12-15T02:29:34.833Z,-2.89
2022-12-15T02:32:17.182Z,-2.78
2022-12-15T02:35:04.093Z,-2.73
2022-12-15T02:37:39.629Z,-2.51
2022-12-15T02:40:10.049Z,-2.09
2022-12-15T02:42:48.538Z,-1.93
2022-12-15T02:45:32.368Z,-1.84
2022-12-15T02:48:33.186Z,-1.74
2022-12-15T02:51:51.257Z,-1.61
2022-12-15T02:55:02.230Z,-1.54
2022-12-15T02:58:08.941Z,-1.51
2022-12-15T03:00:46.481Z,-1.49
2022-12-15T03:03:20.486Z,-1.35
2022-12-15T03:05:55.115Z,-1.28
2022-12-15T03:08:23.108Z,-1.23
2022-12-15T03:10:53.284Z,-1.16
2022-12-15T03:13:24.825Z,-1.07
2022-12-15T03:15:54.464Z,-0.98
2022-12-15T03:18:21.772Z,-0.94
2022-12-15T03:20:50.632Z,-0.88
2022-12-15T03:23:17.806Z,-0.84
2022-12-15T03:25:46.134Z,-0.81
2022-12-15T03:28:18.094Z,-0.79
2022-12-15T03:30:45.414Z,-0.80
2022-12-15T03:33:18.514Z,-0.83
2022-12-15T03:35:45.731Z,-0.79
2022-12-15T03:38:13.223Z,-0.68
2022-12-15T03:40:40.502Z,-0.59
2022-12-15T03:43:07.706Z,-0.58
2022-12-15T03:45:34.982Z,-0.65
2022-12-15T03:48:02.397Z,-0.73
2022-12-15T03:50:30.349Z,-0.72
2022-12-15T03:53:02.181Z,-0.72
2022-12-15T03:55:30.797Z,-0.76
2022-12-15T03:57:59.309Z,-0.77
2022-12-15T04:00:27.361Z,-0.77
2022-12-15T04:02:54.894Z,-0.78
2022-12-15T04:05:29.136Z,-0.78
2022-12-15T04:07:58.359Z,-0.68
2022-12-15T04:10:34.349Z,-0.63
2022-12-15T04:13:10.717Z,-0.61
2022-12-15T04:15:39.569Z,-0.71
2022-12-15T04:18:10.480Z,-0.77
2022-12-15T04:20:40.496Z,-0.77
2022-12-15T04:23:08.334Z,-0.76
2022-12-15T04:25:55.585Z,-0.75
2022-12-15T04:28:41.506Z,-0.71
2022-12-15T04:31:36.688Z,-0.64
2022-12-15T04:34:27.332Z,-0.74
2022-12-15T04:37:13.484Z,-0.70
2022-12-15T04:40:03.250Z,-0.52
2022-12-15T04:42:51.918Z,-0.41
2022-12-15T04:45:42.715Z,-0.44
2022-12-15T04:48:29.570Z,-0.40
2022-12-15T04:51:15.676Z,-0.32
2022-12-15T04:54:03.643Z,-0.38
2022-12-15T04:56:51.322Z,-0.42
2022-12-15T04:59:37.324Z,-0.41
2022-12-15T05:02:23.309Z,-0.24
2022-12-15T05:05:09.400Z,-0.13
2022-12-15T05:07:55.429Z,-0.20
2022-12-15T05:10:41.509Z,-0.14
2022-12-15T05:13:27.720Z,-0.08
2022-12-15T05:16:14.067Z,-0.13
2022-12-15T05:19:00.278Z,-0.15
2022-12-15T05:21:45.871Z,-0.19
2022-12-15T05:24:31.825Z,-0.16
2022-12-15T05:27:17.835Z,-0.11
2022-12-15T05:30:03.810Z,-0.18
2022-12-15T05:32:33.309Z,-0.16
2022-12-15T05:35:01.413Z,-0.11
2022-12-15T05:37:28.808Z,-0.10
2022-12-15T05:39:55.998Z,-0.11
2022-12-15T05:42:23.333Z,-0.09
2022-12-15T05:44:50.549Z,-0.09
2022-12-15T05:47:17.657Z,-0.05
2022-12-15T05:49:44.829Z,-0.07
2022-12-15T05:52:12.288Z,-0.07
2022-12-15T05:54:39.422Z,-0.09
2022-12-15T05:57:06.791Z,-0.10
2022-12-15T05:59:33.992Z,-0.06
2022-12-15T06:02:01.317Z,-0.04
2022-12-15T06:04:28.704Z,-0.03
2022-12-15T06:06:56.040Z,0.02
2022-12-15T06:09:23.187Z,0.04
2022-12-15T06:11:50.455Z,0.09
2022-12-15T06:14:17.680Z,0.12
2022-12-15T06:16:50.046Z,0.20
2022-12-15T06:19:19.916Z,0.23
2022-12-15T06:21:47.481Z,0.25
2022-12-15T06:24:15.110Z,0.26
2022-12-15T06:26:42.539Z,0.20
2022-12-15T06:29:12.149Z,0.15
2022-12-15T06:31:40.737Z,0.16
2022-12-15T06:34:13.384Z,0.17
2022-12-15T06:36:42.503Z,0.26
2022-12-15T06:39:15.071Z,0.35
2022-12-15T06:41:43.971Z,0.41
2022-12-15T06:44:16.217Z,0.41
2022-12-15T06:46:45.625Z,0.37
2022-12-15T06:49:13.469Z,0.35
2022-12-15T06:51:41.565Z,0.33
2022-12-15T06:54:11.138Z,0.31
2022-12-15T06:56:39.558Z,0.34
2022-12-15T06:59:08.369Z,0.32
2022-12-15T07:01:36.092Z,0.36
2022-12-15T07:04:05.446Z,0.38
2022-12-15T07:06:36.741Z,0.43
2022-12-15T07:09:10.344Z,0.38
2022-12-15T07:11:37.651Z,0.36
2022-12-15T07:14:05.140Z,0.42
2022-12-15T07:16:32.820Z,0.49
2022-12-15T07:19:00.122Z,0.58
2022-12-15T07:21:27.281Z,0.60
2022-12-15T07:23:56.462Z,0.61
2022-12-15T07:26:24.735Z,0.65
2022-12-15T07:28:53.349Z,0.71
2022-12-15T07:31:22.442Z,0.72
2022-12-15T07:33:51.833Z,0.66
2022-12-15T07:36:18.953Z,0.71
2022-12-15T07:38:49.889Z,0.81
2022-12-15T07:41:20.294Z,0.83
2022-12-15T07:43:48.310Z,0.80
2022-12-15T07:46:17.015Z,0.74
2022-12-15T07:48:50.118Z,0.72
2022-12-15T07:51:20.335Z,0.67
2022-12-15T07:53:50.171Z,0.67
2022-12-15T07:56:19.605Z,0.74
2022-12-15T07:58:46.988Z,0.80
2022-12-15T08:01:15.770Z,0.81
2022-12-15T08:03:43.354Z,0.79
2022-12-15T08:06:15.108Z,0.84
2022-12-15T08:08:50.537Z,0.86
2022-12-15T08:11:22.062Z,0.88
2022-12-15T08:14:02.458Z,0.91
2022-12-15T08:16:31.191Z,0.95
2022-12-15T08:18:58.643Z,1.01
2022-12-15T08:21:26.005Z,1.06
2022-12-15T08:23:53.260Z,1.08
2022-12-15T08:26:25.042Z,1.12
2022-12-15T08:28:55.587Z,1.15
2022-12-15T08:31:24.443Z,1.17
2022-12-15T08:33:51.802Z,1.15
2022-12-15T08:36:20.048Z,1.26
2022-12-15T08:38:48.162Z,1.34
2022-12-15T08:41:26.437Z,1.37
2022-12-15T08:43:55.468Z,1.42
2022-12-15T08:46:30.423Z,1.41
2022-12-15T08:48:58.185Z,1.47
2022-12-15T08:51:29.794Z,1.49
2022-12-15T08:53:59.109Z,1.40
2022-12-15T08:56:28.149Z,1.39
2022-12-15T08:59:02.124Z,1.47
2022-12-15T09:01:32.823Z,1.53
2022-12-15T09:04:01.292Z,1.54
2022-12-15T09:06:35.191Z,1.59
2022-12-15T09:09:10.219Z,1.66
2022-12-15T09:11:37.445Z,1.65
2022-12-15T09:14:04.738Z,1.62
2022-12-15T09:16:32.057Z,1.66
2022-12-15T09:19:00.848Z,1.67
2022-12-15T09:21:30.792Z,1.71
2022-12-15T09:24:02.164Z,1.71
2022-12-15T09:26:33.416Z,1.73
2022-12-15T09:29:02.023Z,1.77
2022-12-15T09:31:33.672Z,1.80
2022-12-15T09:34:02.042Z,1.82
2022-12-15T09:36:32.464Z,1.91
2022-12-15T09:39:01.804Z,1.93
2022-12-15T09:41:34.818Z,1.81
2022-12-15T09:44:19.869Z,1.72
2022-12-15T09:47:11.448Z,1.70
2022-12-15T09:49:58.779Z,1.75
2022-12-15T09:52:39.831Z,1.74
2022-12-15T09:55:32.685Z,1.79
2022-12-15T09:58:57.200Z,1.78
2022-12-15T10:02:00.209Z,1.71
2022-12-15T10:05:06.159Z,1.70
2022-12-15T10:07:50.392Z,1.67
2022-12-15T10:10:46.485Z,1.70
2022-12-15T10:13:25.366Z,1.74
2022-12-15T10:16:31.054Z,1.80
2022-12-15T10:19:36.522Z,1.76
2022-12-15T10:22:04.049Z,1.89
2022-12-15T10:27:49.192Z,1.97
2022-12-15T10:30:16.983Z,1.97
2022-12-15T10:33:01.491Z,2.02
2022-12-15T10:35:36.330Z,2.03
2022-12-15T10:38:23.294Z,1.99
2022-12-15T10:40:59.384Z,1.90
2022-12-15T10:43:37.306Z,1.95
2022-12-15T10:46:20.111Z,1.87
2022-12-15T10:48:56.390Z,1.93
2022-12-15T10:51:43.076Z,1.93
2022-12-15T10:54:10.218Z,1.87
2022-12-15T10:56:59.403Z,1.84
2022-12-15T10:59:33.082Z,1.74
2022-12-15T11:02:33.531Z,1.80
2022-12-15T11:05:17.615Z,1.87
2022-12-15T11:08:16.896Z,1.85
2022-12-15T11:11:17.603Z,1.86
2022-12-15T11:14:13.104Z,1.86
2022-12-15T11:16:58.873Z,1.87
2022-12-15T11:20:06.937Z,1.83
2022-12-15T11:22:51.110Z,1.84
2022-12-15T11:25:43.089Z,1.93
2022-12-15T11:28:24.370Z,1.98
2022-12-15T11:31:14.937Z,1.93
2022-12-15T11:33:42.106Z,1.89
2022-12-15T11:36:54.305Z,1.87
2022-12-15T11:40:18.234Z,1.82
2022-12-15T11:43:21.618Z,1.81
2022-12-15T11:46:19.152Z,1.76
2022-12-15T11:49:47.212Z,1.91
2022-12-15T11:52:26.608Z,1.97
2022-12-15T11:55:41.261Z,1.98
2022-12-15T11:59:05.094Z,1.94
2022-12-15T12:02:27.874Z,1.89
2022-12-15T12:05:57.838Z,1.88
2022-12-15T12:09:06.793Z,1.91
2022-12-15T12:12:09.233Z,1.91
2022-12-15T12:15:23.555Z,1.86
2022-12-15T12:17:58.370Z,1.86
2022-12-15T12:20:59.215Z,1.82
2022-12-15T12:23:53.264Z,1.86
2022-12-15T12:29:58.200Z,1.98
2022-12-15T12:32:47.321Z,1.97
2022-12-15T12:35:45.846Z,1.99
2022-12-15T12:38:13.860Z,1.92
2022-12-15T12:40:40.918Z,1.84
2022-12-15T12:43:31.843Z,1.80
2022-12-15T12:46:32.144Z,1.86
2022-12-15T12:49:42.011Z,1.81
2022-12-15T12:52:52.168Z,1.88
2022-12-15T12:55:44.010Z,1.92
2022-12-15T12:58:41.455Z,1.97
2022-12-15T13:01:13.033Z,1.98
2022-12-15T13:03:42.610Z,1.95
2022-12-15T13:06:42.339Z,1.97
2022-12-15T13:09:18.952Z,1.91
2022-12-15T13:11:49.149Z,1.82
2022-12-15T13:14:53.821Z,1.84
2022-12-15T13:17:32.965Z,1.89
2022-12-15T13:20:03.078Z,1.90
2022-12-15T13:22:36.049Z,1.86
2022-12-15T13:25:48.583Z,1.79
2022-12-15T13:28:36.251Z,1.74
2022-12-15T13:31:21.203Z,1.74
2022-12-15T13:33:51.425Z,1.70
2022-12-15T13:36:37.212Z,1.68
2022-12-15T13:39:16.337Z,1.65
2022-12-15T13:42:15.266Z,1.69
2022-12-15T13:45:05.473Z,1.66
2022-12-15T13:47:33.525Z,1.69
2022-12-15T13:50:09.449Z,1.69
2022-12-15T13:55:51.476Z,1.69
2022-12-15T13:58:20.938Z,1.70
2022-12-15T14:00:58.088Z,1.71
2022-12-15T14:03:26.655Z,1.67
2022-12-15T14:06:00.204Z,1.65
2022-12-15T14:08:30.504Z,1.68
2022-12-15T14:11:16.695Z,1.62
2022-12-15T14:13:54.159Z,1.62
2022-12-15T14:16:23.060Z,1.62
2022-12-15T14:22:04.226Z,1.60
2022-12-15T14:24:39.456Z,1.58
2022-12-15T14:27:07.519Z,1.59
2022-12-15T14:29:34.673Z,1.60
2022-12-15T14:32:02.250Z,1.60
2022-12-15T14:34:39.909Z,1.59
2022-12-15T14:37:20.089Z,1.64
2022-12-15T14:39:50.153Z,1.62
2022-12-15T14:42:29.291Z,1.61
2022-12-15T14:44:58.338Z,1.59
2022-12-15T14:47:29.175Z,1.57
2022-12-15T14:50:01.024Z,1.57
2022-12-15T14:52:41.253Z,1.55
2022-12-15T14:55:36.793Z,1.54
2022-12-15T14:58:36.083Z,1.49
2022-12-15T15:01:40.892Z,1.47
2022-12-15T15:04:34.133Z,1.52
2022-12-15T15:07:18.231Z,1.48
2022-12-15T15:09:46.941Z,1.46
2022-12-15T15:12:25.101Z,1.42
2022-12-15T15:15:04.035Z,1.42
2022-12-15T15:17:52.648Z,1.40
2022-12-15T15:20:29.327Z,1.38
2022-12-15T15:23:17.813Z,1.43
2022-12-15T15:26:04.810Z,1.38
2022-12-15T15:28:44.831Z,1.38
2022-12-15T15:31:41.768Z,1.36
2022-12-15T15:34:09.693Z,1.36
2022-12-15T15:36:39.538Z,1.33
2022-12-15T15:39:15.762Z,1.32
2022-12-15T15:41:43.127Z,1.31
2022-12-15T15:44:15.865Z,1.33
2022-12-15T15:46:52.020Z,1.29
2022-12-15T15:49:21.952Z,1.26
2022-12-15T15:51:49.642Z,1.21
2022-12-15T15:54:22.963Z,1.22
2022-12-15T15:56:50.214Z,1.21
2022-12-15T15:59:21.403Z,1.18
2022-12-15T16:01:55.973Z,1.12
2022-12-15T16:04:24.237Z,1.09
2022-12-15T16:06:52.922Z,1.12
2022-12-15T16:09:20.460Z,1.10
2022-12-15T16:11:47.997Z,1.11
2022-12-15T16:14:17.734Z,1.13
2022-12-15T16:16:45.677Z,1.11
2022-12-15T16:19:13.031Z,1.07
2022-12-15T16:21:42.615Z,1.05
2022-12-15T16:24:16.997Z,1.05
2022-12-15T16:26:51.067Z,1.06
2022-12-15T16:29:21.608Z,1.03
2022-12-15T16:31:49.084Z,1.01
2022-12-15T16:34:19.026Z,0.98
2022-12-15T16:36:46.361Z,1.00
2022-12-15T16:39:35.003Z,1.00
2022-12-15T16:42:02.918Z,0.97
2022-12-15T16:44:30.828Z,1.01
2022-12-15T16:46:58.911Z,1.02
2022-12-15T16:49:27.755Z,1.02
2022-12-15T16:51:55.141Z,0.95
2022-12-15T16:54:28.793Z,0.95
2022-12-15T16:56:58.328Z,0.95
2022-12-15T16:59:35.643Z,0.93
2022-12-15T17:02:28.127Z,0.92
2022-12-15T17:04:55.847Z,0.89
2022-12-15T17:07:26.629Z,0.91
2022-12-15T17:09:54.008Z,0.91
2022-12-15T17:12:21.302Z,0.85
2022-12-15T17:14:48.521Z,0.91
2022-12-15T17:17:19.524Z,0.82
2022-12-15T17:22:34.383Z,0.78
2022-12-15T17:25:01.844Z,0.79
2022-12-15T17:27:30.128Z,0.83
2022-12-15T17:29:59.715Z,0.84
2022-12-15T17:32:26.935Z,0.85
2022-12-15T17:34:54.234Z,0.83
2022-12-15T17:37:21.521Z,0.84
2022-12-15T17:39:51.235Z,0.87
2022-12-15T17:42:21.306Z,0.88
2022-12-15T17:44:49.434Z,0.82
2022-12-15T17:47:19.464Z,0.80
2022-12-15T17:49:47.302Z,0.78
2022-12-15T17:52:30.365Z,0.76
2022-12-15T17:54:58.098Z,0.74
2022-12-15T17:57:25.693Z,0.80
2022-12-15T17:59:54.001Z,0.78
2022-12-15T18:02:21.289Z,0.71
2022-12-15T18:04:48.654Z,0.70
2022-12-15T18:07:21.472Z,0.72
2022-12-15T18:09:51.331Z,0.76
2022-12-15T18:12:27.474Z,0.69
2022-12-15T18:14:56.656Z,0.69
2022-12-15T18:17:24.514Z,0.67
2022-12-15T18:19:51.722Z,0.66
2022-12-15T18:22:24.569Z,0.73
2022-12-15T18:24:54.300Z,0.71
2022-12-15T18:27:29.025Z,0.63
2022-12-15T18:29:56.994Z,0.58
2022-12-15T18:32:27.321Z,0.59
2022-12-15T18:34:55.143Z,0.55
2022-12-15T18:37:28.183Z,0.58
2022-12-15T18:39:59.493Z,0.57
2022-12-15T18:42:31.342Z,0.53
2022-12-15T18:45:00.318Z,0.56
2022-12-15T18:47:27.846Z,0.55
2022-12-15T18:49:55.151Z,0.57
2022-12-15T18:52:27.673Z,0.52
2022-12-15T18:54:56.071Z,0.56
2022-12-15T18:57:38.190Z,0.55
2022-12-15T19:00:14.432Z,0.59
2022-12-15T19:02:43.030Z,0.62
2022-12-15T19:05:28.952Z,0.62
2022-12-15T19:08:10.254Z,0.56
2022-12-15T19:11:13.212Z,0.55
2022-12-15T19:13:40.576Z,0.57
2022-12-15T19:16:19.901Z,0.59
2022-12-15T19:19:06.026Z,0.64
2022-12-15T19:21:54.458Z,0.60
2022-12-15T19:24:44.894Z,0.59
2022-12-15T19:27:23.360Z,0.58
2022-12-15T19:29:51.228Z,0.62
2022-12-15T19:32:18.352Z,0.60
2022-12-15T19:34:46.155Z,0.61
2022-12-15T19:37:25.533Z,0.64
2022-12-15T19:39:54.271Z,0.64
2022-12-15T19:42:35.931Z,0.61
2022-12-15T19:45:24.061Z,0.63
2022-12-15T19:47:52.060Z,0.63
2022-12-15T19:50:33.150Z,0.64
2022-12-15T19:53:06.586Z,0.66
2022-12-15T19:55:35.880Z,0.66
2022-12-15T19:58:31.639Z,0.64
2022-12-15T20:01:06.363Z,0.65
2022-12-15T20:03:35.135Z,0.69
2022-12-15T20:06:04.574Z,0.69
2022-12-15T20:08:38.761Z,0.69
2022-12-15T20:11:13.011Z,0.70
2022-12-15T20:13:40.216Z,0.70
2022-12-15T20:16:09.030Z,0.69
2022-12-15T20:18:36.443Z,0.68
2022-12-15T20:21:03.778Z,0.71
2022-12-15T20:23:31.811Z,0.72
2022-12-15T20:26:01.121Z,0.72
2022-12-15T20:28:30.130Z,0.73
2022-12-15T20:30:58.190Z,0.69
2022-12-15T20:33:25.481Z,0.66
2022-12-15T20:35:53.111Z,0.63
2022-12-15T20:38:34.057Z,0.60
2022-12-15T20:41:03.591Z,0.62
2022-12-15T20:43:34.584Z,0.60
2022-12-15T20:46:13.166Z,0.57
2022-12-15T20:48:40.790Z,0.54
2022-12-15T20:51:30.946Z,0.55
2022-12-15T20:54:02.260Z,0.55
2022-12-15T20:56:29.858Z,0.55
2022-12-15T20:58:58.750Z,0.56
2022-12-15T21:01:33.513Z,0.59
2022-12-15T21:04:16.637Z,0.56
2022-12-15T21:06:44.408Z,0.57
2022-12-15T21:09:14.830Z,0.54
2022-12-15T21:11:42.380Z,0.58
2022-12-15T21:14:20.408Z,0.61
2022-12-15T21:16:48.346Z,0.62
2022-12-15T21:19:21.277Z,0.64
2022-12-15T21:21:55.302Z,0.66
2022-12-15T21:24:28.544Z,0.67
2022-12-15T21:26:56.263Z,0.70
2022-12-15T21:29:27.950Z,0.69
2022-12-15T21:31:55.204Z,0.75
2022-12-15T21:34:22.585Z,0.75
2022-12-15T21:36:55.213Z,0.73
2022-12-15T21:39:34.068Z,0.73
2022-12-15T21:42:12.219Z,0.76
2022-12-15T21:44:39.516Z,0.75
2022-12-15T21:47:49.768Z,0.74
2022-12-15T21:50:19.821Z,0.74
2022-12-15T21:52:47.895Z,0.76
2022-12-15T21:55:21.278Z,0.80
2022-12-15T21:57:49.005Z,0.80
2022-12-15T22:00:18.867Z,0.80
2022-12-15T22:02:49.402Z,0.80
2022-12-15T22:05:29.202Z,0.84
2022-12-15T22:07:58.628Z,0.83
2022-12-15T22:10:26.243Z,0.82
2022-12-15T22:12:59.289Z,0.81
2022-12-15T22:15:28.681Z,0.82
2022-12-15T22:17:56.057Z,0.83
2022-12-15T22:20:25.174Z,0.84
2022-12-15T22:22:52.348Z,0.83
2022-12-15T22:25:25.904Z,0.82
2022-12-15T22:27:54.738Z,0.84
2022-12-15T22:30:27.133Z,0.85
2022-12-15T22:32:54.625Z,0.83
2022-12-15T22:35:26.146Z,0.82
2022-12-15T22:37:53.796Z,0.84
2022-12-15T22:40:22.714Z,0.82
2022-12-15T22:42:55.483Z,0.82
2022-12-15T22:45:26.158Z,0.82
2022-12-15T22:47:55.177Z,0.81
2022-12-15T22:50:26.760Z,0.81
2022-12-15T22:52:55.074Z,0.84
2022-12-15T22:55:24.347Z,0.83
2022-12-15T22:58:07.397Z,0.85
2022-12-15T23:00:34.824Z,0.83
2022-12-15T23:03:02.470Z,0.85
2022-12-15T23:05:29.883Z,0.86
2022-12-15T23:07:58.614Z,0.87
2022-12-15T23:10:44.560Z,0.87
2022-12-15T23:13:11.831Z,0.89
2022-12-15T23:15:57.587Z,0.90
2022-12-15T23:18:25.000Z,0.94
2022-12-15T23:20:52.323Z,0.96
2022-12-15T23:23:19.872Z,0.98
2022-12-15T23:25:47.099Z,1.01
2022-12-15T23:28:14.609Z,0.99
2022-12-15T23:30:41.913Z,1.01
2022-12-15T23:33:09.044Z,1.03
2022-12-15T23:35:40.564Z,1.02
2022-12-15T23:38:07.734Z,1.02
2022-12-15T23:40:35.804Z,1.01
2022-12-15T23:43:03.249Z,1.01
2022-12-15T23:45:30.396Z,1.01
2022-12-15T23:47:57.573Z,1.03
2022-12-15T23:50:24.826Z,1.01
2022-12-15T23:52:52.114Z,1.02
2022-12-15T23:55:19.569Z,1.02
2022-12-15T23:57:46.841Z,0.99
